Data for 02/04/2010

Time Sea-Level Adjusted Pressure Absolute Pressure Temperature Relative Humidity Dew Point   
(mb) (inHg) (mb) (inHg) (C) (F) (%) (C) (F)
00:05 1010 29.83 839 24.78 -3.2 26.2 82 -6 21.3
00:10 1010 29.83 839 24.78 -3.3 26 82 -6 21.3
00:15 1010 29.83 839 24.78 -3.3 26.1 83 -5.9 21.4
00:20 1010 29.83 839 24.78 -3.3 26 83 -5.8 21.5
00:25 1010 29.83 839 24.78 -3.3 26 83 -5.8 21.6
00:30 1010 29.83 839 24.78 -3.4 25.8 84 -5.8 21.6
00:35 1010 29.83 839 24.78 -3.6 25.6 85 -5.8 21.6
00:40 1010 29.83 839 24.78 -3.5 25.7 85 -5.7 21.7
00:45 1010 29.83 839 24.78 -3.5 25.7 85 -5.6 21.9
00:50 1010 29.83 839 24.78 -3.4 26 85 -5.5 22.1
00:55 1010 29.83 839 24.78 -3.3 26.1 85 -5.5 22.1
01:00 1010 29.83 839 24.78 -3.1 26.4 84 -5.5 22.2
01:05 1010 29.83 839 24.78 -3 26.6 83 -5.4 22.2
01:10 1010 29.83 839 24.78 -3 26.6 84 -5.4 22.3
01:15 1010 29.83 839 24.78 -3 26.6 84 -5.3 22.4
01:20 1010 29.83 839 24.78 -3.1 26.4 84 -5.5 22.1
01:25 1010 29.83 839 24.78 -3.2 26.2 84 -5.6 22
01:30 1010 29.83 839 24.78 -3.3 26.1 84 -5.6 22
01:35 1010 29.83 839 24.78 -3.3 26.1 84 -5.6 22
01:40 1010 29.83 839 24.78 -3.5 25.7 86 -5.5 22.1
01:45 1010 29.83 839 24.78 -3.6 25.5 87 -5.4 22.3
01:50 1010 29.83 839 24.78 -3.5 25.6 87 -5.4 22.2
01:55 1010 29.83 839 24.78 -3.6 25.5 88 -5.4 22.3
02:00 1010 29.83 839 24.78 -3.7 25.3 89 -5.2 22.6
02:05 1010 29.83 839 24.78 -3.8 25.2 90 -5.2 22.6
02:10 1010 29.83 839 24.78 -3.8 25.2 90 -5.1 22.8
02:15 1010 29.83 839 24.78 -3.9 25 91 -5.2 22.7
02:20 1010 29.83 839 24.78 -3.9 25 91 -5.1 22.8
02:25 1010 29.83 839 24.78 -3.8 25.1 92 -5 23
02:30 1010 29.83 839 24.78 -3.8 25.1 92 -5 23
02:35 1010 29.83 839 24.78 -3.8 25.2 92 -4.8 23.3
02:40 1010 29.83 839 24.78 -3.7 25.4 92 -4.8 23.4
02:45 1010 29.83 839 24.78 -3.9 25.1 93 -4.9 23.2
02:50 1010 29.83 839 24.78 -4 24.9 94 -4.9 23.3
02:55 1010 29.83 839 24.78 -3.8 25.1 94 -4.7 23.6
03:00 1010 29.83 839 24.78 -3.9 25.1 94 -4.7 23.5
03:05 1010 29.83 839 24.78 -4 24.8 94 -4.8 23.4
03:10 1010 29.83 839 24.78 -4 24.9 95 -4.7 23.5
03:15 1010 29.83 839 24.78 -4 24.9 95 -4.7 23.6
03:20 1010 29.83 839 24.78 -3.9 25 95 -4.5 23.9
03:25 1010 29.83 839 24.78 -3.8 25.2 95 -4.4 24
03:30 1010 29.83 839 24.78 -3.7 25.3 95 -4.4 24.2
03:35 1010 29.83 839 24.78 -3.6 25.5 95 -4.3 24.2
03:40 1010 29.83 839 24.78 -3.6 25.5 95 -4.3 24.2
03:45 1010 29.83 839 24.78 -3.6 25.5 95 -4.3 24.2
03:50 1010 29.83 839 24.78 -3.5 25.6 95 -4.3 24.3
03:55 1010 29.83 839 24.78 -3.5 25.7 94 -4.4 24.1
04:00 1010 29.83 839 24.78 -3.5 25.6 94 -4.4 24
04:05 1010 29.83 839 24.78 -3.5 25.7 94 -4.4 24.1
04:10 1010 29.83 839 24.78 -3.4 25.8 94 -4.3 24.2
04:15 1010 29.83 839 24.78 -3.4 25.8 94 -4.3 24.2
04:20 1010 29.83 839 24.78 -3.4 25.9 94 -4.3 24.3
04:25 1010 29.83 840 24.81 -3.3 26 94 -4.1 24.5
04:30 1010 29.83 840 24.81 -3.2 26.3 94 -4.1 24.7
04:35 1010 29.83 840 24.81 -3.2 26.2 94 -4.1 24.5
04:40 1010 29.83 840 24.81 -3.4 25.9 94 -4.2 24.4
04:45 1010 29.83 840 24.81 -3.5 25.7 95 -4.2 24.4
04:50 1010 29.83 840 24.81 -3.5 25.6 95 -4.2 24.4
04:55 1010 29.83 840 24.81 -3.5 25.6 95 -4.2 24.5
05:00 1010 29.83 840 24.81 -3.5 25.6 95 -4.2 24.5
05:05 1010 29.83 840 24.81 -3.5 25.7 96 -4.1 24.6
05:10 1011 29.85 840 24.81 -3.5 25.8 96 -4.1 24.7
05:15 1011 29.85 840 24.81 -3.4 25.8 96 -4 24.8
05:20 1011 29.85 840 24.81 -3.4 25.9 96 -4 24.9
05:25 1011 29.85 840 24.81 -3.4 25.9 96 -4 24.9
05:30 1011 29.85 840 24.81 -3.4 25.8 96 -4 24.8
05:35 1011 29.85 840 24.81 -3.4 25.9 96 -4 24.8
05:40 1011 29.85 840 24.81 -3.4 25.9 96 -4 24.8
05:45 1011 29.85 840 24.81 -3.4 25.9 96 -4 24.9
05:50 1011 29.85 840 24.81 -3.4 25.9 96 -3.9 25
05:55 1011 29.85 840 24.81 -3.3 26 96 -3.9 25
06:00 1011 29.85 840 24.81 -3.3 26.1 96 -3.9 25
06:05 1011 29.85 840 24.81 -3.2 26.2 96 -3.9 25.1
06:10 1011 29.85 840 24.81 -3.2 26.2 96 -3.8 25.1
06:15 1011 29.85 840 24.81 -3.3 26.1 95 -3.9 25
06:20 1011 29.85 840 24.81 -3.3 26 96 -3.9 24.9
06:25 1011 29.85 840 24.81 -3.3 26.1 96 -3.9 25
06:30 1011 29.85 840 24.81 -3.2 26.2 96 -3.8 25.1
06:35 1011 29.85 840 24.81 -3.2 26.2 96 -3.8 25.1
06:40 1011 29.85 840 24.81 -3.2 26.3 95 -3.8 25.2
06:45 1011 29.85 840 24.81 -3.1 26.3 96 -3.8 25.2
06:50 1011 29.85 840 24.81 -3.1 26.5 96 -3.7 25.4
06:55 1011 29.85 840 24.81 -3 26.7 96 -3.6 25.5
07:00 1011 29.85 840 24.81 -3 26.7 95 -3.6 25.5
07:05 1011 29.85 840 24.81 -2.9 26.7 95 -3.6 25.6
07:10 1011 29.85 840 24.81 -2.9 26.8 95 -3.6 25.6
07:15 1011 29.85 840 24.81 -2.9 26.7 95 -3.6 25.6
07:20 1011 29.85 840 24.81 -2.9 26.7 95 -3.6 25.5
07:25 1011 29.85 840 24.81 -2.9 26.7 95 -3.6 25.5
07:30 1011 29.85 840 24.81 -2.9 26.8 95 -3.6 25.5
07:35 1011 29.85 840 24.81 -2.9 26.7 95 -3.7 25.4
07:40 1011 29.85 840 24.81 -2.8 26.9 95 -3.6 25.6
07:45 1011 29.85 840 24.81 -2.8 26.9 95 -3.5 25.6
07:50 1011 29.85 840 24.81 -2.7 27.1 94 -3.5 25.7
07:55 1011 29.85 841 24.83 -2.7 27.1 95 -3.5 25.8
08:00 1011 29.85 841 24.83 -2.6 27.2 94 -3.4 25.8
08:05 1012 29.88 841 24.83 -2.6 27.3 94 -3.4 25.8
08:10 1012 29.88 841 24.83 -2.5 27.5 94 -3.4 25.8
08:15 1012 29.88 841 24.83 -2.5 27.4 93 -3.5 25.7
08:20 1012 29.88 841 24.83 -2.5 27.4 94 -3.4 25.8
08:25 1012 29.88 841 24.83 -2.5 27.5 93 -3.5 25.7
08:30 1012 29.88 841 24.83 -2.6 27.3 93 -3.5 25.7
08:35 1012 29.88 841 24.83 -2.6 27.4 94 -3.5 25.8
08:40 1012 29.88 841 24.83 -2.6 27.4 93 -3.5 25.7
08:45 1012 29.88 841 24.83 -2.6 27.3 94 -3.5 25.7
08:50 1012 29.88 841 24.83 -2.4 27.7 93 -3.4 25.8
08:55 1012 29.88 841 24.83 -2.2 28 92 -3.3 26
09:00 1012 29.88 841 24.83 -2 28.4 91 -3.3 26.1
09:05 1012 29.88 841 24.83 -1.8 28.8 90 -3.2 26.3
09:10 1012 29.88 841 24.83 -1.4 29.4 88 -3.2 26.3
09:15 1012 29.88 841 24.83 -1.6 29.1 89 -3.2 26.2
09:20 1012 29.88 841 24.83 -1.7 29 89 -3.2 26.2
09:25 1012 29.88 841 24.83 -1.2 29.9 86 -3.2 26.3
09:30 1012 29.88 841 24.83 -0.9 30.5 85 -3.1 26.4
09:35 1012 29.88 841 24.83 -1 30.2 87 -3 26.6
09:40 1012 29.88 841 24.83 -0.8 30.5 85 -3 26.6
09:45 1012 29.88 841 24.83 -0.5 31.1 83 -3 26.5
09:50 1012 29.88 841 24.83 -0.3 31.4 83 -2.9 26.7
09:55 1012 29.88 841 24.83 -0.6 30.8 85 -2.9 26.8
10:00 1012 29.88 841 24.83 -1 30.3 87 -2.9 26.8
10:05 1012 29.88 841 24.83 -0.7 30.7 86 -2.8 26.9
10:10 1012 29.88 841 24.83 -0.5 31.2 85 -2.7 27.1
10:15 1012 29.88 841 24.83 -0.6 31 85 -2.7 27.1
10:20 1012 29.88 841 24.83 -0.1 31.8 83 -2.7 27.1
10:25 1012 29.88 841 24.83 0.1 32.2 81 -2.7 27.1
10:30 1012 29.88 841 24.83 0.3 32.5 80 -2.7 27.2
10:35 1012 29.88 841 24.83 0.4 32.6 81 -2.5 27.5
10:40 1012 29.88 841 24.83 0.3 32.6 82 -2.3 27.8
10:45 1012 29.88 841 24.83 0.5 32.9 81 -2.3 27.8
10:50 1012 29.88 841 24.83 0.6 33.1 81 -2.2 28.1
10:55 1012 29.88 841 24.83 0.7 33.3 81 -2.2 28
11:00 1012 29.88 841 24.83 0.6 33 82 -2.2 28
11:05 1012 29.88 841 24.83 0.6 33 79 -2.6 27.3
11:10 1012 29.88 841 24.83 0.2 32.3 82 -2.5 27.5
11:15 1012 29.88 841 24.83 0.4 32.8 80 -2.6 27.4
11:20 1012 29.88 841 24.83 -0.3 31.5 86 -2.3 27.8
11:25 1012 29.88 841 24.83 -0.2 31.7 84 -2.6 27.4
11:30 1012 29.88 841 24.83 0.5 32.9 80 -2.5 27.5
11:35 1012 29.88 841 24.83 0.2 32.4 82 -2.5 27.5
11:40 1012 29.88 841 24.83 0.5 33 78 -2.9 26.8
11:45 1012 29.88 841 24.83 1.3 34.3 75 -2.6 27.3
11:50 1012 29.88 841 24.83 1.3 34.3 75 -2.6 27.3
11:55 1012 29.88 841 24.83 1 33.8 77 -2.7 27.2
12:00 1012 29.88 841 24.83 1 33.8 75 -2.9 26.8
12:05 1012 29.88 841 24.83 0.3 32.5 81 -2.5 27.4
12:10 1012 29.88 841 24.83 0.5 32.9 77 -3 26.5
12:15 1012 29.88 841 24.83 0.6 33.1 78 -2.7 27.1
12:20 1012 29.88 841 24.83 -0.3 31.4 83 -2.8 27
12:25 1012 29.88 841 24.83 0 32 79 -3.2 26.2
12:30 1012 29.88 841 24.83 0.1 32.1 80 -2.9 26.7
12:35 1012 29.88 841 24.83 0.7 33.3 77 -2.9 26.8
12:40 1012 29.88 841 24.83 0.8 33.4 77 -2.8 26.9
12:45 1012 29.88 841 24.83 0.5 32.9 81 -2.4 27.7
12:50 1012 29.88 841 24.83 0.1 32.2 80 -2.9 26.8
12:55 1012 29.88 841 24.83 -0.4 31.4 84 -2.7 27.2
13:00 1012 29.88 841 24.83 -1.4 29.6 89 -2.9 26.7
13:05 1012 29.88 841 24.83 -1.3 29.6 88 -3 26.6
13:10 1012 29.88 841 24.83 -1 30.2 86 -3 26.6
13:15 1012 29.88 841 24.83 -0.8 30.6 85 -3 26.5
13:20 1012 29.88 841 24.83 -0.4 31.3 82 -3 26.6
13:25 1012 29.88 841 24.83 0.1 32.2 80 -3 26.6
13:30 1012 29.88 841 24.83 0.6 33.1 77 -2.9 26.8
13:35 1012 29.88 841 24.83 1.6 35 72 -2.9 26.7
13:40 1012 29.88 841 24.83 2 35.7 70 -2.9 26.8
13:45 1012 29.88 841 24.83 1.8 35.2 70 -3 26.5
13:50 1012 29.88 841 24.83 1.2 34.2 75 -2.7 27.1
13:55 1012 29.88 841 24.83 1.8 35.3 70 -3 26.5
14:00 1012 29.88 841 24.83 2.4 36.4 70 -2.4 27.7
14:05 1012 29.88 841 24.83 1.8 35.2 76 -2.1 28.3
14:10 1012 29.88 841 24.83 0.7 33.3 79 -2.6 27.4
14:15 1012 29.88 841 24.83 0.9 33.5 76 -2.9 26.7
14:20 1012 29.88 841 24.83 0.9 33.7 78 -2.5 27.5
14:25 1012 29.88 841 24.83 -0.1 31.8 82 -2.7 27.1
14:30 1012 29.88 841 24.83 -0.2 31.6 82 -2.9 26.8
14:35 1012 29.88 841 24.83 -0.3 31.4 85 -2.5 27.5
14:40 1012 29.88 841 24.83 0.8 33.4 77 -2.9 26.8
14:45 1012 29.88 841 24.83 1.6 34.9 72 -2.9 26.8
14:50 1011 29.85 841 24.83 2.3 36.2 70 -2.5 27.5
14:55 1011 29.85 841 24.83 2.6 36.7 68 -2.7 27.1
15:00 1011 29.85 841 24.83 3.4 38 65 -2.6 27.3
15:05 1011 29.85 841 24.83 3.1 37.5 66 -2.6 27.4
15:10 1012 29.88 841 24.83 2.8 37 69 -2.3 27.9
15:15 1011 29.85 841 24.83 2.3 36.1 70 -2.6 27.4
15:20 1011 29.85 841 24.83 2.3 36.1 72 -2.2 28
15:25 1011 29.85 841 24.83 1.8 35.3 71 -2.8 26.9
15:30 1012 29.88 841 24.83 2.5 36.5 69 -2.7 27.1
15:35 1011 29.85 841 24.83 2.7 36.8 68 -2.6 27.3
15:40 1011 29.85 841 24.83 3.1 37.7 66 -2.7 27.2
15:45 1011 29.85 841 24.83 2.9 37.1 69 -2.2 28
15:50 1011 29.85 841 24.83 2.2 36 70 -2.6 27.4
15:55 1011 29.85 841 24.83 2 35.7 71 -2.8 27
16:00 1011 29.85 841 24.83 2.5 36.4 69 -2.7 27.1
16:05 1011 29.85 841 24.83 2.9 37.1 67 -2.7 27.2
16:10 1011 29.85 841 24.83 2.8 37.1 67 -2.7 27.1
16:15 1012 29.88 841 24.83 2.7 36.9 68 -2.7 27.2
16:20 1012 29.88 841 24.83 2.9 37.3 66 -2.8 27
16:25 1012 29.88 841 24.83 2.8 37 67 -2.7 27.1
16:30 1012 29.88 841 24.83 2.9 37.3 66 -2.9 26.8
16:35 1012 29.88 841 24.83 3 37.3 66 -2.8 26.9
16:40 1012 29.88 841 24.83 2.5 36.4 69 -2.6 27.3
16:45 1012 29.88 841 24.83 1.4 34.4 74 -2.8 27
16:50 1012 29.88 841 24.83 0.6 33.1 77 -2.9 26.7
16:55 1012 29.88 841 24.83 0.1 32.2 80 -3 26.6
17:00 1012 29.88 841 24.83 0.2 32.3 78 -3.2 26.2
17:05 1012 29.88 841 24.83 0.1 32.2 79 -3.1 26.4
17:10 1012 29.88 841 24.83 -0.2 31.7 81 -3 26.6
17:15 1012 29.88 841 24.83 -0.7 30.7 83 -3.3 26.1
17:20 1012 29.88 841 24.83 -1 30.3 83 -3.5 25.7
17:25 1012 29.88 841 24.83 -1.1 30 83 -3.6 25.5
17:30 1012 29.88 841 24.83 -1.1 30 83 -3.6 25.5
17:35 1012 29.88 841 24.83 -1 30.2 84 -3.4 25.8
17:40 1012 29.88 841 24.83 -1.1 30 85 -3.4 25.9
17:45 1012 29.88 841 24.83 -1.2 29.8 85 -3.4 25.9
17:50 1012 29.88 841 24.83 -1.3 29.6 87 -3.3 26.1
17:55 1012 29.88 842 24.86 -1.4 29.6 86 -3.3 26
18:00 1012 29.88 842 24.86 -1.2 29.9 85 -3.4 25.9
18:05 1012 29.88 842 24.86 -1.6 29.1 88 -3.3 26.1
18:10 1012 29.88 842 24.86 -2.1 28.2 91 -3.5 25.8
18:15 1012 29.88 842 24.86 -2.3 27.8 91 -3.6 25.5
18:20 1012 29.88 842 24.86 -2.4 27.7 90 -3.8 25.2
18:25 1012 29.88 842 24.86 -2.4 27.6 90 -3.9 24.9
18:30 1012 29.88 842 24.86 -2.5 27.5 87 -4.4 24.1
18:35 1012 29.88 842 24.86 -2.6 27.3 87 -4.5 23.9
18:40 1012 29.88 842 24.86 -2.8 27 89 -4.4 24
18:45 1012 29.88 842 24.86 -2.8 27 89 -4.4 24.1
18:50 1012 29.88 842 24.86 -2.8 27 86 -4.9 23.3
18:55 1012 29.88 842 24.86 -2.7 27.2 85 -4.9 23.2
19:00 1012 29.88 842 24.86 -2.6 27.4 82 -5.3 22.5
19:05 1012 29.88 842 24.86 -2.3 27.8 81 -5.1 22.8
19:10 1012 29.88 842 24.86 -2.4 27.7 81 -5.3 22.5
19:15 1012 29.88 842 24.86 -2.7 27.1 81 -5.5 22.1
19:20 1012 29.88 842 24.86 -2.8 27 81 -5.6 21.9
19:25 1013 29.91 842 24.86 -2.9 26.8 80 -5.9 21.4
19:30 1013 29.91 842 24.86 -2.6 27.3 78 -5.9 21.3
19:35 1013 29.91 842 24.86 -2.4 27.8 77 -5.9 21.4
19:40 1013 29.91 842 24.86 -2.3 27.9 76 -5.9 21.3
19:45 1013 29.91 842 24.86 -2.2 28.1 75 -6 21.2
19:50 1013 29.91 842 24.86 -2.3 27.8 77 -5.9 21.5
19:55 1013 29.91 842 24.86 -2.6 27.3 77 -6.1 21
20:00 1013 29.91 842 24.86 -2.7 27.1 77 -6.2 20.8
20:05 1013 29.91 842 24.86 -2.8 26.9 77 -6.3 20.7
20:10 1013 29.91 842 24.86 -2.8 26.9 77 -6.3 20.7
20:15 1013 29.91 842 24.86 -2.7 27.2 76 -6.4 20.5
20:20 1013 29.91 842 24.86 -2.9 26.8 77 -6.5 20.4
20:25 1013 29.91 842 24.86 -3.1 26.4 77 -6.6 20.1
20:30 1013 29.91 842 24.86 -3.1 26.4 78 -6.5 20.3
20:35 1013 29.91 842 24.86 -3 26.5 77 -6.5 20.2
20:40 1013 29.91 842 24.86 -3.2 26.3 78 -6.5 20.3
20:45 1013 29.91 842 24.86 -3.2 26.2 78 -6.6 20.1
20:50 1013 29.91 842 24.86 -3.2 26.3 77 -6.6 20
20:55 1013 29.91 842 24.86 -3.2 26.2 77 -6.8 19.8
21:00 1013 29.91 842 24.86 -3.4 26 78 -6.6 20.1
21:05 1013 29.91 842 24.86 -3.4 25.9 78 -6.7 19.9
21:10 1013 29.91 842 24.86 -3.2 26.2 76 -6.8 19.7
21:15 1013 29.91 842 24.86 -3 26.5 75 -6.8 19.8
21:20 1013 29.91 842 24.86 -3.3 26.1 77 -6.8 19.8
21:25 1013 29.91 842 24.86 -3.4 25.8 77 -6.9 19.5
21:30 1013 29.91 842 24.86 -3.5 25.7 77 -7 19.5
21:35 1013 29.91 842 24.86 -3.7 25.4 78 -7 19.4
21:40 1013 29.91 842 24.86 -3.8 25.2 78 -7.1 19.1
21:45 1013 29.91 842 24.86 -3.9 25.1 78 -7.1 19.1
21:50 1013 29.91 842 24.86 -4 24.8 78 -7.3 18.9
21:55 1013 29.91 842 24.86 -4 24.8 78 -7.2 19
22:00 1013 29.91 842 24.86 -4 24.8 78 -7.3 18.8
22:05 1013 29.91 842 24.86 -4.1 24.6 78 -7.5 18.6
22:10 1013 29.91 842 24.86 -4.1 24.7 78 -7.4 18.8
22:15 1013 29.91 842 24.86 -4.2 24.4 79 -7.4 18.6
22:20 1013 29.91 842 24.86 -4.4 24.1 79 -7.5 18.5
22:25 1013 29.91 842 24.86 -4.2 24.4 78 -7.5 18.6
22:30 1013 29.91 842 24.86 -4.1 24.5 78 -7.5 18.5
22:35 1013 29.91 842 24.86 -4.2 24.5 78 -7.5 18.5
22:40 1013 29.91 842 24.86 -4.2 24.5 77 -7.6 18.3
22:45 1013 29.91 842 24.86 -4.1 24.6 77 -7.6 18.3
22:50 1013 29.91 842 24.86 -4.2 24.4 77 -7.6 18.3
22:55 1013 29.91 842 24.86 -4 24.9 76 -7.5 18.4
23:00 1013 29.91 842 24.86 -4 24.9 77 -7.4 18.6
23:05 1013 29.91 842 24.86 -4 24.8 77 -7.5 18.5
23:10 1013 29.91 842 24.86 -3.9 24.9 76 -7.5 18.5
23:15 1013 29.91 842 24.86 -3.4 25.9 74 -7.4 18.8
23:20 1013 29.91 842 24.86 -3.6 25.5 76 -7.3 18.9
23:25 1013 29.91 842 24.86 -3.7 25.3 75 -7.5 18.6
23:30 1013 29.91 842 24.86 -4 24.9 77 -7.5 18.5
23:35 1013 29.91 842 24.86 -4.2 24.4 77 -7.6 18.2
23:40 1013 29.91 842 24.86 -4.2 24.4 77 -7.6 18.3
23:45 1013 29.91 842 24.86 -3.9 25.1 77 -7.4 18.7
23:50 1013 29.91 842 24.86 -3.8 25.2 76 -7.4 18.7
23:55 1013 29.91 842 24.86 -3.9 24.9 76 -7.5 18.4
24:00 1013 29.91 842 24.86 -4.4 24 77 -7.9 17.8